createdAt,value
2023-05-05T00:01:24.500Z,17.40
2023-05-05T00:03:50.913Z,17.40
2023-05-05T00:06:17.229Z,17.36
2023-05-05T00:08:43.490Z,17.35
2023-05-05T00:11:09.743Z,17.29
2023-05-05T00:13:36.030Z,17.24
2023-05-05T00:16:02.295Z,17.21
2023-05-05T00:18:28.588Z,17.15
2023-05-05T00:20:54.839Z,17.10
2023-05-05T00:23:21.120Z,17.04
2023-05-05T00:25:47.380Z,17.02
2023-05-05T00:28:13.643Z,16.99
2023-05-05T00:30:39.899Z,16.97
2023-05-05T00:33:06.152Z,16.92
2023-05-05T00:35:32.417Z,16.92
2023-05-05T00:37:58.694Z,16.90
2023-05-05T00:40:24.984Z,16.82
2023-05-05T00:42:51.255Z,16.76
2023-05-05T00:45:17.545Z,16.71
2023-05-05T00:47:43.809Z,16.65
2023-05-05T00:50:10.152Z,16.60
2023-05-05T00:52:36.416Z,16.59
2023-05-05T00:55:02.670Z,16.53
2023-05-05T00:57:28.974Z,16.50
2023-05-05T00:59:55.264Z,16.50
2023-05-05T01:02:21.505Z,16.49
2023-05-05T01:04:47.756Z,16.44
2023-05-05T01:07:14.025Z,16.40
2023-05-05T01:09:40.284Z,16.37
2023-05-05T01:12:06.546Z,16.34
2023-05-05T01:14:32.812Z,16.28
2023-05-05T01:16:59.078Z,16.28
2023-05-05T01:19:25.329Z,16.29
2023-05-05T01:21:51.597Z,16.27
2023-05-05T01:24:17.836Z,16.25
2023-05-05T01:26:44.073Z,16.23
2023-05-05T01:29:10.331Z,16.23
2023-05-05T01:31:36.640Z,16.22
2023-05-05T01:34:02.930Z,16.17
2023-05-05T01:36:29.167Z,16.18
2023-05-05T01:38:55.437Z,16.17
2023-05-05T01:41:21.736Z,16.17
2023-05-05T01:43:47.994Z,16.19
2023-05-05T01:46:14.344Z,16.21
2023-05-05T01:48:42.298Z,16.15
2023-05-05T01:51:08.669Z,16.19
2023-05-05T01:53:34.918Z,16.21
2023-05-05T01:56:01.183Z,16.24
2023-05-05T01:58:27.511Z,16.23
2023-05-05T02:00:53.849Z,16.20
2023-05-05T02:03:20.341Z,16.20
2023-05-05T02:05:46.682Z,16.19
2023-05-05T02:08:13.012Z,16.08
2023-05-05T02:10:39.352Z,16.00
2023-05-05T02:13:05.715Z,15.96
2023-05-05T02:15:32.044Z,15.94
2023-05-05T02:17:58.354Z,15.95
2023-05-05T02:20:24.641Z,15.95
2023-05-05T02:22:50.906Z,15.95
2023-05-05T02:25:17.268Z,15.94
2023-05-05T02:27:43.540Z,15.91
2023-05-05T02:30:10.024Z,15.90
2023-05-05T02:32:36.564Z,15.86
2023-05-05T02:35:02.908Z,15.88
2023-05-05T02:37:29.154Z,15.88
2023-05-05T02:39:55.426Z,15.88
2023-05-05T02:42:21.710Z,15.90
2023-05-05T02:44:47.980Z,15.91
2023-05-05T02:47:14.238Z,15.89
2023-05-05T02:49:40.494Z,15.81
2023-05-05T02:52:06.786Z,15.80
2023-05-05T02:54:33.041Z,15.77
2023-05-05T02:56:59.346Z,15.76
2023-05-05T02:59:25.654Z,15.74
2023-05-05T03:01:51.954Z,15.70
2023-05-05T03:04:18.296Z,15.68
2023-05-05T03:06:44.560Z,15.65
2023-05-05T03:09:10.830Z,15.66
2023-05-05T03:11:37.094Z,15.65
2023-05-05T03:14:03.375Z,15.64
2023-05-05T03:16:29.627Z,15.65
2023-05-05T03:18:55.880Z,15.64
2023-05-05T03:21:22.151Z,15.64
2023-05-05T03:23:48.402Z,15.65
2023-05-05T03:26:14.759Z,15.65
2023-05-05T03:28:41.022Z,15.56
2023-05-05T03:31:07.272Z,15.54
2023-05-05T03:33:33.575Z,15.46
2023-05-05T03:35:59.849Z,15.41
2023-05-05T03:38:26.119Z,15.36
2023-05-05T03:40:52.394Z,15.34
2023-05-05T03:43:18.675Z,15.34
2023-05-05T03:45:44.929Z,15.32
2023-05-05T03:48:11.208Z,15.32
2023-05-05T03:50:37.492Z,15.27
2023-05-05T03:53:03.778Z,15.20
2023-05-05T03:55:30.041Z,15.15
2023-05-05T03:57:56.298Z,15.11
2023-05-05T04:00:22.543Z,15.08
2023-05-05T04:02:48.920Z,15.05
2023-05-05T04:05:15.224Z,15.04
2023-05-05T04:07:41.519Z,15.01
2023-05-05T04:10:07.924Z,14.98
2023-05-05T04:12:34.367Z,14.95
2023-05-05T04:15:00.630Z,14.97
2023-05-05T04:17:26.952Z,14.86
2023-05-05T04:19:53.250Z,14.81
2023-05-05T04:22:19.513Z,14.81
2023-05-05T04:24:45.754Z,14.78
2023-05-05T04:27:12.032Z,14.71
2023-05-05T04:29:38.300Z,14.71
2023-05-05T04:32:04.550Z,14.70
2023-05-05T04:34:30.849Z,14.75
2023-05-05T04:36:57.119Z,14.78
2023-05-05T04:39:23.384Z,14.79
2023-05-05T04:41:49.642Z,14.81
2023-05-05T04:44:15.899Z,14.84
2023-05-05T04:46:42.205Z,14.84
2023-05-05T04:49:08.528Z,14.85
2023-05-05T04:51:34.789Z,14.87
2023-05-05T04:54:01.104Z,14.84
2023-05-05T04:56:27.447Z,14.83
2023-05-05T04:58:53.709Z,14.87
2023-05-05T05:01:20.043Z,14.87
2023-05-05T05:03:46.422Z,14.86
2023-05-05T05:06:12.767Z,14.89
2023-05-05T05:08:39.032Z,14.92
2023-05-05T05:11:05.314Z,14.95
2023-05-05T05:13:31.569Z,14.98
2023-05-05T05:15:57.880Z,15.01
2023-05-05T05:18:24.191Z,15.02
2023-05-05T05:20:50.465Z,15.08
2023-05-05T05:23:16.739Z,15.11
2023-05-05T05:25:43.005Z,15.14
2023-05-05T05:28:10.816Z,15.15
2023-05-05T05:30:37.341Z,15.09
2023-05-05T05:33:03.649Z,15.08
2023-05-05T05:35:30.004Z,15.06
2023-05-05T05:37:56.260Z,15.06
2023-05-05T05:40:22.538Z,15.07
2023-05-05T05:42:48.838Z,15.06
2023-05-05T05:45:15.124Z,15.05
2023-05-05T05:47:41.453Z,15.04
2023-05-05T05:50:07.937Z,15.01
2023-05-05T05:52:34.464Z,15.03
2023-05-05T05:55:00.740Z,14.89
2023-05-05T05:57:27.006Z,14.89
2023-05-05T05:59:53.303Z,14.92
2023-05-05T06:02:19.587Z,14.95
2023-05-05T06:04:45.882Z,15.00
2023-05-05T06:07:12.132Z,15.05
2023-05-05T06:09:38.401Z,15.09
2023-05-05T06:12:04.729Z,15.16
2023-05-05T06:14:30.974Z,15.24
2023-05-05T06:16:57.215Z,15.31
2023-05-05T06:19:23.474Z,15.38
2023-05-05T06:21:49.753Z,15.44
2023-05-05T06:24:16.008Z,15.51
2023-05-05T06:26:42.289Z,15.56
2023-05-05T06:29:10.425Z,15.63
2023-05-05T06:31:38.150Z,15.69
2023-05-05T06:34:04.494Z,15.73
2023-05-05T06:36:30.813Z,15.76
2023-05-05T06:38:57.164Z,15.83
2023-05-05T06:41:23.414Z,15.88
2023-05-05T06:43:49.673Z,15.94
2023-05-05T06:46:16.048Z,15.99
2023-05-05T06:48:42.368Z,16.05
2023-05-05T06:51:08.631Z,16.11
2023-05-05T06:53:34.921Z,16.16
2023-05-05T06:56:01.209Z,16.23
2023-05-05T06:58:27.454Z,16.26
2023-05-05T07:00:53.744Z,16.32
2023-05-05T07:03:20.092Z,16.37
2023-05-05T07:05:46.434Z,16.44
2023-05-05T07:08:12.701Z,16.50
2023-05-05T07:10:38.984Z,16.57
2023-05-05T07:13:05.324Z,16.60
2023-05-05T07:15:31.627Z,16.66
2023-05-05T07:17:58.228Z,16.70
2023-05-05T07:20:24.878Z,16.77
2023-05-05T07:22:51.148Z,16.81
2023-05-05T07:25:17.419Z,16.82
2023-05-05T07:27:43.809Z,16.87
2023-05-05T07:30:14.099Z,16.94
2023-05-05T07:32:42.805Z,16.93
2023-05-05T07:35:09.109Z,16.92
2023-05-05T07:37:35.400Z,17.01
2023-05-05T07:40:01.646Z,16.95
2023-05-05T07:42:27.907Z,16.92
2023-05-05T07:44:54.184Z,16.95
2023-05-05T07:47:20.452Z,16.99
2023-05-05T07:49:46.736Z,17.07
2023-05-05T07:52:13.018Z,17.04
2023-05-05T07:54:39.283Z,17.02
2023-05-05T07:57:05.532Z,17.05
2023-05-05T07:59:31.819Z,17.14
2023-05-05T08:01:58.088Z,17.20
2023-05-05T08:04:24.374Z,17.23
2023-05-05T08:06:50.661Z,17.27
2023-05-05T08:09:16.961Z,17.29
2023-05-05T08:11:43.230Z,17.36
2023-05-05T08:14:09.494Z,17.33
2023-05-05T08:16:35.770Z,17.38
2023-05-05T08:19:02.123Z,17.41
2023-05-05T08:21:28.392Z,17.38
2023-05-05T08:23:54.635Z,17.43
2023-05-05T08:26:20.911Z,17.47
2023-05-05T08:28:47.199Z,17.55
2023-05-05T08:31:13.522Z,17.57
2023-05-05T08:33:39.823Z,17.60
2023-05-05T08:36:06.095Z,17.64
2023-05-05T08:38:32.354Z,17.69
2023-05-05T08:40:58.646Z,17.79
2023-05-05T08:43:24.919Z,17.75
2023-05-05T08:45:51.173Z,17.79
2023-05-05T08:48:17.415Z,17.89
2023-05-05T08:50:43.691Z,17.93
2023-05-05T08:53:09.970Z,17.98
2023-05-05T08:55:36.224Z,18.05
2023-05-05T08:58:02.495Z,18.16
2023-05-05T09:00:28.785Z,18.20
2023-05-05T09:02:55.126Z,18.24
2023-05-05T09:05:21.439Z,18.24
2023-05-05T09:07:47.721Z,18.29
2023-05-05T09:10:14.000Z,18.35
2023-05-05T09:12:40.370Z,18.38
2023-05-05T09:15:06.926Z,18.38
2023-05-05T09:17:33.402Z,18.34
2023-05-05T09:19:59.693Z,18.38
2023-05-05T09:22:25.961Z,18.40
2023-05-05T09:24:52.250Z,18.41
2023-05-05T09:27:18.489Z,18.35
2023-05-05T09:29:44.771Z,18.40
2023-05-05T09:32:11.110Z,18.33
2023-05-05T09:34:37.472Z,18.40
2023-05-05T09:37:03.760Z,18.38
2023-05-05T09:39:30.022Z,18.29
2023-05-05T09:41:56.288Z,18.38
2023-05-05T09:44:22.576Z,18.37
2023-05-05T09:46:48.910Z,18.36
2023-05-05T09:49:15.269Z,18.33
2023-05-05T09:51:41.555Z,18.41
2023-05-05T09:54:07.821Z,18.47
2023-05-05T09:56:34.081Z,18.49
2023-05-05T09:59:00.384Z,18.55
2023-05-05T10:01:26.674Z,18.54
2023-05-05T10:03:52.996Z,18.53
2023-05-05T10:06:19.262Z,18.58
2023-05-05T10:08:45.545Z,18.59
2023-05-05T10:11:11.806Z,18.64
2023-05-05T10:13:38.084Z,18.68
2023-05-05T10:16:04.419Z,18.69
2023-05-05T10:18:30.768Z,18.67
2023-05-05T10:20:57.046Z,18.73
2023-05-05T10:23:23.300Z,18.74
2023-05-05T10:25:49.584Z,18.74
2023-05-05T10:28:15.873Z,18.76
2023-05-05T10:30:42.183Z,18.74
2023-05-05T10:35:39.822Z,18.78
2023-05-05T10:38:06.120Z,18.77
2023-05-05T10:40:32.400Z,18.80
2023-05-05T10:42:58.663Z,18.83
2023-05-05T10:45:25.053Z,18.87
2023-05-05T10:47:51.359Z,18.94
2023-05-05T10:50:17.617Z,18.98
2023-05-05T10:52:43.920Z,19.05
2023-05-05T10:55:10.177Z,19.18
2023-05-05T10:57:36.459Z,19.22
2023-05-05T11:00:02.747Z,19.28
2023-05-05T11:02:29.185Z,19.34
2023-05-05T11:04:55.636Z,19.45
2023-05-05T11:07:21.913Z,19.50
2023-05-05T11:09:48.180Z,19.59
2023-05-05T11:12:14.492Z,19.69
2023-05-05T11:14:40.763Z,19.76
2023-05-05T11:17:07.045Z,19.76
2023-05-05T11:19:33.372Z,19.84
2023-05-05T11:21:59.653Z,19.87
2023-05-05T11:24:26.006Z,19.94
2023-05-05T11:26:52.386Z,20.04
2023-05-05T11:29:18.728Z,20.03
2023-05-05T11:31:45.002Z,19.99
2023-05-05T11:34:11.258Z,19.99
2023-05-05T11:36:37.527Z,20.03
2023-05-05T11:39:03.868Z,20.12
2023-05-05T11:41:30.159Z,20.25
2023-05-05T11:43:56.438Z,20.32
2023-05-05T11:46:22.735Z,20.26
2023-05-05T11:48:49.005Z,20.27
2023-05-05T11:51:15.267Z,20.27
2023-05-05T11:53:41.525Z,20.32
2023-05-05T11:56:07.773Z,20.45
2023-05-05T11:58:34.052Z,20.48
2023-05-05T12:01:00.299Z,20.61
2023-05-05T12:03:26.915Z,20.67
2023-05-05T12:05:53.467Z,20.81
2023-05-05T12:08:19.746Z,20.98
2023-05-05T12:10:46.008Z,21.01
2023-05-05T12:13:12.810Z,21.04
2023-05-05T12:15:39.128Z,21.12
2023-05-05T12:18:05.450Z,21.16
2023-05-05T12:20:31.760Z,21.18
2023-05-05T12:22:58.038Z,21.18
2023-05-05T12:25:24.310Z,21.18
2023-05-05T12:27:50.580Z,21.24
2023-05-05T12:30:16.956Z,21.24
2023-05-05T12:32:43.389Z,21.29
2023-05-05T12:35:09.744Z,21.49
2023-05-05T12:37:35.999Z,21.52
2023-05-05T12:40:02.267Z,21.57
2023-05-05T12:42:28.545Z,21.60
2023-05-05T12:44:54.829Z,21.63
2023-05-05T12:47:21.095Z,21.74
2023-05-05T12:49:47.363Z,21.82
2023-05-05T12:52:13.632Z,21.89
2023-05-05T12:54:39.896Z,21.97
2023-05-05T12:57:06.133Z,22.01
2023-05-05T12:59:32.418Z,22.07
2023-05-05T13:01:58.749Z,22.20
2023-05-05T13:04:25.079Z,22.25
2023-05-05T13:06:52.986Z,22.26
2023-05-05T13:09:20.307Z,22.17
2023-05-05T13:11:46.587Z,22.12
2023-05-05T13:14:12.866Z,22.20
2023-05-05T13:16:39.128Z,22.34
2023-05-05T13:19:05.437Z,22.38
2023-05-05T13:21:31.786Z,22.52
2023-05-05T13:24:05.067Z,22.48
2023-05-05T13:26:38.604Z,22.55
2023-05-05T13:29:04.873Z,22.64
2023-05-05T13:31:31.166Z,22.56
2023-05-05T13:33:57.444Z,22.70
2023-05-05T13:36:23.719Z,22.72
2023-05-05T13:38:50.018Z,22.69
2023-05-05T13:41:16.296Z,22.73
2023-05-05T13:43:42.549Z,22.84
2023-05-05T13:46:19.278Z,22.84
2023-05-05T13:48:46.682Z,22.81
2023-05-05T13:51:13.018Z,22.89
2023-05-05T13:53:39.267Z,23.01
2023-05-05T13:56:05.524Z,23.05
2023-05-05T13:58:31.766Z,23.06
2023-05-05T14:00:58.048Z,23.11
2023-05-05T14:03:24.362Z,23.28
2023-05-05T14:05:50.644Z,23.36
2023-05-05T14:08:16.914Z,23.43
2023-05-05T14:10:44.771Z,23.32
2023-05-05T14:13:12.321Z,23.49
2023-05-05T14:15:38.689Z,23.49
2023-05-05T14:18:04.972Z,23.59
2023-05-05T14:20:31.232Z,23.66
2023-05-05T14:22:57.521Z,23.74
2023-05-05T14:25:24.821Z,23.76
2023-05-05T14:27:51.123Z,23.70
2023-05-05T14:30:17.383Z,23.85
2023-05-05T14:32:43.705Z,23.84
2023-05-05T14:35:10.124Z,23.94
2023-05-05T14:37:36.448Z,24.07
2023-05-05T14:40:04.972Z,24.14
2023-05-05T14:42:32.062Z,24.32
2023-05-05T14:44:58.324Z,24.54
2023-05-05T14:47:24.611Z,24.72
2023-05-05T14:49:50.902Z,24.92
2023-05-05T14:52:17.173Z,25.08
2023-05-05T14:54:43.473Z,25.14
2023-05-05T14:57:09.744Z,25.16
2023-05-05T14:59:36.014Z,25.15
2023-05-05T15:02:02.348Z,25.20
2023-05-05T15:04:28.670Z,25.24
2023-05-05T15:06:54.980Z,25.13
2023-05-05T15:09:21.240Z,25.29
2023-05-05T15:11:47.529Z,25.33
2023-05-05T15:14:13.784Z,25.46
2023-05-05T15:16:40.222Z,25.42
2023-05-05T15:19:06.663Z,25.38
2023-05-05T15:21:32.940Z,25.23
2023-05-05T15:23:59.209Z,25.10
2023-05-05T15:26:25.501Z,25.20
2023-05-05T15:28:51.775Z,25.30
2023-05-05T15:31:18.060Z,25.48
2023-05-05T15:33:44.341Z,25.69
2023-05-05T15:36:10.605Z,25.72
2023-05-05T15:38:36.911Z,25.79
2023-05-05T15:41:03.162Z,25.72
2023-05-05T15:43:29.429Z,25.73
2023-05-05T15:45:55.791Z,25.70
2023-05-05T15:48:22.056Z,25.54
2023-05-05T15:50:48.339Z,25.47
2023-05-05T15:53:14.621Z,25.16
2023-05-05T15:55:40.915Z,24.91
2023-05-05T15:58:07.203Z,24.46
2023-05-05T16:00:33.473Z,24.41
2023-05-05T16:02:59.887Z,24.36
2023-05-05T16:05:26.214Z,24.17
2023-05-05T16:07:52.492Z,24.19
2023-05-05T16:10:18.790Z,24.20
2023-05-05T16:12:45.089Z,24.02
2023-05-05T16:15:11.555Z,24.09
2023-05-05T16:17:38.106Z,23.87
2023-05-05T16:20:04.420Z,23.29
2023-05-05T16:22:30.707Z,23.41
2023-05-05T16:24:56.958Z,23.03
2023-05-05T16:27:23.220Z,22.97
2023-05-05T16:29:49.513Z,22.87
2023-05-05T16:32:15.783Z,22.56
2023-05-05T16:34:42.062Z,22.43
2023-05-05T16:37:08.337Z,22.55
2023-05-05T16:39:34.616Z,22.51
2023-05-05T16:42:00.901Z,22.57
2023-05-05T16:44:27.159Z,22.82
2023-05-05T16:46:53.490Z,23.14
2023-05-05T16:49:19.759Z,23.20
2023-05-05T16:51:46.040Z,23.92
2023-05-05T16:54:12.464Z,23.40
2023-05-05T16:56:38.742Z,23.96
2023-05-05T16:59:05.022Z,24.15
2023-05-05T17:01:31.302Z,24.01
2023-05-05T17:03:57.575Z,23.98
2023-05-05T17:06:23.834Z,24.04
2023-05-05T17:08:50.122Z,24.72
2023-05-05T17:11:16.393Z,25.57
2023-05-05T17:13:42.652Z,26.22
2023-05-05T17:16:08.958Z,26.30
2023-05-05T17:18:35.269Z,26.34
2023-05-05T17:21:01.544Z,26.05
2023-05-05T17:23:27.827Z,25.28
2023-05-05T17:25:54.095Z,24.38
2023-05-05T17:28:20.366Z,23.19
2023-05-05T17:30:46.645Z,22.96
2023-05-05T17:33:12.926Z,22.96
2023-05-05T17:35:39.201Z,22.54
2023-05-05T17:38:05.471Z,22.67
2023-05-05T17:40:31.801Z,22.09
2023-05-05T17:42:58.109Z,22.10
2023-05-05T17:45:24.361Z,22.00
2023-05-05T17:47:50.709Z,21.66
2023-05-05T17:50:16.993Z,21.76
2023-05-05T17:52:43.286Z,21.73
2023-05-05T17:55:09.714Z,21.74
2023-05-05T17:57:36.125Z,21.80
2023-05-05T18:00:02.382Z,21.72
2023-05-05T18:02:28.689Z,21.66
2023-05-05T18:04:55.025Z,21.73
2023-05-05T18:07:21.293Z,21.76
2023-05-05T18:09:47.545Z,21.78
2023-05-05T18:12:13.825Z,21.63
2023-05-05T18:14:40.091Z,21.65
2023-05-05T18:17:06.412Z,21.69
2023-05-05T18:19:32.692Z,21.74
2023-05-05T18:21:58.958Z,21.79
2023-05-05T18:24:25.214Z,21.78
2023-05-05T18:26:51.477Z,21.76
2023-05-05T18:29:17.746Z,21.75
2023-05-05T18:31:44.084Z,21.75
2023-05-05T18:34:10.490Z,21.72
2023-05-05T18:36:36.757Z,21.69
2023-05-05T18:39:03.087Z,21.62
2023-05-05T18:41:29.372Z,21.57
2023-05-05T18:43:55.661Z,21.55
2023-05-05T18:46:21.962Z,21.42
2023-05-05T18:48:48.319Z,21.33
2023-05-05T18:51:14.605Z,21.26
2023-05-05T18:53:40.874Z,21.22
2023-05-05T18:56:07.172Z,21.16
2023-05-05T18:58:33.425Z,21.16
2023-05-05T19:00:59.763Z,21.15
2023-05-05T19:03:26.076Z,21.16
2023-05-05T19:05:52.340Z,21.16
2023-05-05T19:08:18.607Z,21.09
2023-05-05T19:10:44.890Z,21.00
2023-05-05T19:13:11.281Z,20.99
2023-05-05T19:15:37.625Z,20.99
2023-05-05T19:18:03.994Z,20.97
2023-05-05T19:20:30.291Z,20.91
2023-05-05T19:22:56.556Z,20.79
2023-05-05T19:25:22.839Z,20.79
2023-05-05T19:27:49.115Z,20.73
2023-05-05T19:30:15.395Z,20.68
2023-05-05T19:32:41.688Z,20.67
2023-05-05T19:35:08.093Z,20.67
2023-05-05T19:37:34.640Z,20.67
2023-05-05T19:40:00.938Z,20.64
2023-05-05T19:42:27.240Z,20.60
2023-05-05T19:44:53.514Z,20.58
2023-05-05T19:47:19.774Z,20.57
2023-05-05T19:49:46.024Z,20.55
2023-05-05T19:52:12.289Z,20.51
2023-05-05T19:54:38.557Z,20.48
2023-05-05T19:57:04.844Z,20.47
2023-05-05T19:59:31.109Z,20.47
2023-05-05T20:01:57.648Z,20.44
2023-05-05T20:04:24.028Z,20.34
2023-05-05T20:06:50.360Z,20.29
2023-05-05T20:09:16.716Z,20.25
2023-05-05T20:11:42.987Z,20.23
2023-05-05T20:14:09.257Z,20.18
2023-05-05T20:16:35.697Z,20.11
2023-05-05T20:19:02.091Z,20.07
2023-05-05T20:21:28.345Z,20.00
2023-05-05T20:23:54.653Z,19.99
2023-05-05T20:26:20.941Z,19.89
2023-05-05T20:28:47.207Z,19.85
2023-05-05T20:31:13.535Z,19.78
2023-05-05T20:33:39.849Z,19.69
2023-05-05T20:36:06.141Z,19.69
2023-05-05T20:38:32.462Z,19.66
2023-05-05T20:40:58.726Z,19.66
2023-05-05T20:43:25.012Z,19.63
2023-05-05T20:45:51.267Z,19.60
2023-05-05T20:48:17.611Z,19.55
2023-05-05T20:50:43.864Z,19.52
2023-05-05T20:53:10.101Z,19.38
2023-05-05T20:55:36.354Z,19.24
2023-05-05T20:58:02.604Z,19.22
2023-05-05T21:00:28.860Z,19.14
2023-05-05T21:02:55.319Z,18.99
2023-05-05T21:05:21.678Z,18.89
2023-05-05T21:07:47.949Z,18.86
2023-05-05T21:10:14.245Z,18.77
2023-05-05T21:12:40.573Z,18.74
2023-05-05T21:15:07.097Z,18.79
2023-05-05T21:17:33.722Z,18.79
2023-05-05T21:20:00.050Z,18.80
2023-05-05T21:22:26.326Z,18.79
2023-05-05T21:24:52.620Z,18.77
2023-05-05T21:27:19.082Z,18.80
2023-05-05T21:29:45.401Z,18.81
2023-05-05T21:32:11.698Z,18.76
2023-05-05T21:34:38.016Z,18.71
2023-05-05T21:37:04.291Z,18.69
2023-05-05T21:39:30.693Z,18.65
2023-05-05T21:41:56.978Z,18.63
2023-05-05T21:44:23.270Z,18.58
2023-05-05T21:46:49.546Z,18.48
2023-05-05T21:49:15.819Z,18.42
2023-05-05T21:51:42.094Z,18.33
2023-05-05T21:54:08.357Z,18.08
2023-05-05T21:56:34.648Z,17.99
2023-05-05T21:59:00.921Z,18.06
2023-05-05T22:01:27.210Z,18.12
2023-05-05T22:03:53.578Z,18.15
2023-05-05T22:06:19.956Z,18.16
2023-05-05T22:08:46.221Z,18.20
2023-05-05T22:11:12.465Z,18.20
2023-05-05T22:13:38.740Z,18.18
2023-05-05T22:16:05.014Z,18.21
2023-05-05T22:18:31.301Z,18.22
2023-05-05T22:20:57.604Z,18.18
2023-05-05T22:23:23.910Z,17.93
2023-05-05T22:25:50.188Z,17.79
2023-05-05T22:28:16.444Z,17.71
2023-05-05T22:30:42.699Z,17.63
2023-05-05T22:33:09.021Z,17.62
2023-05-05T22:35:35.364Z,17.63
2023-05-05T22:38:01.639Z,17.56
2023-05-05T22:40:27.940Z,17.53
2023-05-05T22:42:54.222Z,17.55
2023-05-05T22:45:20.496Z,17.58
2023-05-05T22:47:46.835Z,17.59
2023-05-05T22:50:13.139Z,17.61
2023-05-05T22:52:39.408Z,17.61
2023-05-05T22:55:05.674Z,17.58
2023-05-05T22:57:31.931Z,17.58
2023-05-05T22:59:58.216Z,17.44
2023-05-05T23:02:24.507Z,17.40
2023-05-05T23:04:50.792Z,17.26
2023-05-05T23:07:17.060Z,17.10
2023-05-05T23:09:43.303Z,16.98
2023-05-05T23:12:09.577Z,16.94
2023-05-05T23:14:35.852Z,16.76
2023-05-05T23:17:02.255Z,16.73
2023-05-05T23:19:28.625Z,16.66
2023-05-05T23:21:54.897Z,16.58
2023-05-05T23:24:21.189Z,16.54
2023-05-05T23:26:47.471Z,16.40
2023-05-05T23:29:13.716Z,16.32
2023-05-05T23:31:39.978Z,16.05
2023-05-05T23:34:06.280Z,16.08
2023-05-05T23:36:32.549Z,16.12
2023-05-05T23:38:58.845Z,16.19
2023-05-05T23:41:25.137Z,16.14
2023-05-05T23:43:51.384Z,16.12
2023-05-05T23:46:17.657Z,16.15
2023-05-05T23:48:43.966Z,16.15
2023-05-05T23:51:10.240Z,16.09
2023-05-05T23:53:36.508Z,16.13
2023-05-05T23:56:02.778Z,16.12
2023-05-05T23:58:29.077Z,15.98
